Disclaimer

Please do not use the information listed here in-flight or in-navigation, as they are not provided to us by the airports but are provided by volunteers, so they might be outdated.

Search


Regions


Airport information page

Radio informations:
EZEIZA TWR - 118.6 MHz
GND/CLNC DEL - 121.75 MHz
Automatic Terminal Information Service (ATIS) - 127.8 MHz
EZEIZA APP - 119.9 MHz
BAIRES CON - 124.9 MHz

Airport informations:
Latitude: 34° 49' 20.00" S
Longitude: 058° 32' 09.00" W
Elevation: 67 feet - 20 meters
Operating hours: 24 hour operations
Operating agency: Military-civil joint use airport
Timezone: UTC-3
Fuel: JP-4, Wide cut turbine fuel MIL Spec T-5624

Jet A1, without icing nhibitor.

100/130 MIL Spec, low lead, aviation gasoline (BLUE)

Runway information:
11/29 - 10827 x 197 feet< - >3300 x 60 meters
17/35 - 10187 x 148 feet< - >3105 x 45 meters

Recent METARs:
SAEZ 211600Z 34013KT CAVOK 33/11 Q1009 NOSIG
SAEZ 211700Z 35012KT CAVOK 34/11 Q1009 NOSIG
SAEZ 211700Z 35012KT CAVOK 34/11 Q1009 NOSIG

Airport on the map: